createdAt,value
2018-09-20T00:01:25.424Z,15.80
2018-09-20T00:04:00.348Z,15.80
2018-09-20T00:06:35.380Z,15.80
2018-09-20T00:09:10.032Z,15.80
2018-09-20T00:11:44.914Z,15.80
2018-09-20T00:14:19.816Z,15.70
2018-09-20T00:16:55.422Z,15.80
2018-09-20T00:19:30.365Z,15.80
2018-09-20T00:22:05.530Z,15.80
2018-09-20T00:24:40.226Z,15.70
2018-09-20T00:27:15.606Z,15.60
2018-09-20T00:29:50.445Z,15.60
2018-09-20T00:32:25.433Z,15.60
2018-09-20T00:35:00.242Z,15.60
2018-09-20T00:37:41.889Z,15.60
2018-09-20T00:40:17.229Z,15.50
2018-09-20T00:42:51.999Z,15.50
2018-09-20T00:45:26.806Z,15.50
2018-09-20T00:48:01.526Z,15.50
2018-09-20T00:50:36.502Z,15.30
2018-09-20T00:53:11.305Z,15.30
2018-09-20T00:55:46.427Z,15.30
2018-09-20T00:58:21.138Z,15.40
2018-09-20T01:00:55.989Z,15.30
2018-09-20T01:03:30.835Z,15.30
2018-09-20T01:06:05.689Z,15.10
2018-09-20T01:08:40.676Z,15.00
2018-09-20T01:11:15.761Z,14.90
2018-09-20T01:13:50.997Z,15.00
2018-09-20T01:16:25.979Z,15.00
2018-09-20T01:19:01.423Z,15.10
2018-09-20T01:21:36.251Z,15.10
2018-09-20T01:24:11.512Z,14.90
2018-09-20T01:26:46.133Z,14.90
2018-09-20T01:29:21.018Z,15.00
2018-09-20T01:31:57.014Z,14.90
2018-09-20T01:34:31.894Z,14.90
2018-09-20T01:37:07.900Z,14.90
2018-09-20T01:39:43.045Z,15.00
2018-09-20T01:42:19.052Z,15.00
2018-09-20T01:44:53.982Z,14.90
2018-09-20T01:47:28.849Z,14.90
2018-09-20T01:50:03.946Z,14.90
2018-09-20T01:52:39.234Z,14.80
2018-09-20T01:55:14.003Z,14.80
2018-09-20T01:57:56.414Z,14.70
2018-09-20T02:00:31.605Z,14.60
2018-09-20T02:03:07.073Z,14.60
2018-09-20T02:05:41.818Z,14.50
2018-09-20T02:08:16.613Z,14.50
2018-09-20T02:10:51.389Z,14.50
2018-09-20T02:13:26.230Z,14.50
2018-09-20T02:16:01.722Z,14.40
2018-09-20T02:18:37.066Z,14.50
2018-09-20T02:21:11.629Z,14.20
2018-09-20T02:23:46.413Z,14.30
2018-09-20T02:26:21.481Z,14.30
2018-09-20T02:28:56.253Z,14.40
2018-09-20T02:31:31.225Z,14.50
2018-09-20T02:34:06.577Z,14.50
2018-09-20T02:36:41.378Z,14.60
2018-09-20T02:39:16.197Z,14.50
2018-09-20T02:41:50.894Z,14.50
2018-09-20T02:44:25.757Z,14.40
2018-09-20T02:47:00.929Z,14.50
2018-09-20T02:49:36.098Z,14.40
2018-09-20T02:52:10.945Z,14.40
2018-09-20T02:54:45.901Z,14.30
2018-09-20T02:57:20.653Z,14.20
2018-09-20T02:59:56.146Z,14.30
2018-09-20T03:02:30.889Z,14.20
2018-09-20T03:05:06.455Z,14.10
2018-09-20T03:07:41.126Z,14.00
2018-09-20T03:10:16.105Z,14.10
2018-09-20T03:12:51.006Z,14.10
2018-09-20T03:15:26.649Z,14.10
2018-09-20T03:18:01.683Z,14.10
2018-09-20T03:20:37.545Z,14.10
2018-09-20T03:23:13.019Z,14.10
2018-09-20T03:25:47.852Z,14.10
2018-09-20T03:28:22.435Z,14.10
2018-09-20T03:30:57.957Z,14.10
2018-09-20T03:33:32.908Z,14.10
2018-09-20T03:36:07.886Z,14.10
2018-09-20T03:38:42.970Z,14.10
2018-09-20T03:41:17.908Z,14.10
2018-09-20T03:43:52.945Z,14.10
2018-09-20T03:46:28.039Z,14.00
2018-09-20T03:49:03.474Z,14.00
2018-09-20T03:51:38.541Z,14.00
2018-09-20T03:54:13.558Z,13.90
2018-09-20T03:56:48.454Z,13.90
2018-09-20T03:59:23.122Z,13.90
2018-09-20T04:01:58.670Z,13.90
2018-09-20T04:04:33.458Z,13.90
2018-09-20T04:07:08.354Z,13.90
2018-09-20T04:09:43.309Z,13.90
2018-09-20T04:12:18.311Z,13.90
2018-09-20T04:14:53.178Z,13.80
2018-09-20T04:17:27.949Z,13.80
2018-09-20T04:20:02.893Z,13.80
2018-09-20T04:22:37.724Z,13.70
2018-09-20T04:25:12.597Z,13.70
2018-09-20T04:27:47.642Z,13.70
2018-09-20T04:30:22.413Z,13.70
2018-09-20T04:32:57.810Z,13.60
2018-09-20T04:35:32.573Z,13.60
2018-09-20T04:38:07.267Z,13.70
2018-09-20T04:40:42.264Z,13.60
2018-09-20T04:43:17.142Z,13.60
2018-09-20T04:45:51.998Z,13.60
2018-09-20T04:48:29.038Z,13.70
2018-09-20T04:51:03.768Z,13.60
2018-09-20T04:53:38.564Z,13.60
2018-09-20T04:56:13.325Z,13.60
2018-09-20T04:58:48.149Z,13.60
2018-09-20T05:01:22.988Z,13.50
2018-09-20T05:03:57.945Z,13.30
2018-09-20T05:06:33.406Z,13.40
2018-09-20T05:09:11.343Z,13.40
2018-09-20T05:11:46.499Z,13.50
2018-09-20T05:14:21.349Z,13.50
2018-09-20T05:16:56.285Z,13.50
2018-09-20T05:19:31.439Z,13.50
2018-09-20T05:22:06.138Z,13.50
2018-09-20T05:24:40.899Z,13.50
2018-09-20T05:27:15.694Z,13.50
2018-09-20T05:29:50.319Z,13.50
2018-09-20T05:32:25.087Z,13.60
2018-09-20T05:34:59.901Z,13.60
2018-09-20T05:37:34.696Z,13.60
2018-09-20T05:40:10.038Z,13.70
2018-09-20T05:42:44.953Z,13.70
2018-09-20T05:45:19.813Z,13.80
2018-09-20T05:47:54.649Z,13.80
2018-09-20T05:50:30.189Z,13.90
2018-09-20T05:53:05.315Z,14.00
2018-09-20T05:55:40.203Z,14.10
2018-09-20T05:58:14.977Z,14.10
2018-09-20T06:00:50.338Z,14.20
2018-09-20T06:03:25.960Z,14.30
2018-09-20T06:06:00.921Z,14.40
2018-09-20T06:08:35.924Z,14.40
2018-09-20T06:11:11.561Z,14.50
2018-09-20T06:13:46.601Z,14.60
2018-09-20T06:16:21.445Z,14.70
2018-09-20T06:18:56.198Z,14.80
2018-09-20T06:21:30.886Z,14.90
2018-09-20T06:24:05.925Z,15.00
2018-09-20T06:26:40.663Z,15.00
2018-09-20T06:29:15.334Z,15.20
2018-09-20T06:31:50.215Z,15.30
2018-09-20T06:34:25.258Z,15.50
2018-09-20T06:37:00.129Z,15.60
2018-09-20T06:39:35.074Z,15.70
2018-09-20T06:42:09.889Z,15.90
2018-09-20T06:44:44.686Z,16.00
2018-09-20T06:47:20.781Z,16.20
2018-09-20T06:49:55.873Z,16.30
2018-09-20T06:52:30.814Z,16.50
2018-09-20T06:55:05.617Z,16.60
2018-09-20T06:57:40.507Z,16.70
2018-09-20T07:00:15.922Z,16.90
2018-09-20T07:02:50.773Z,17.00
2018-09-20T07:05:25.877Z,17.10
2018-09-20T07:08:01.343Z,17.30
2018-09-20T07:10:36.530Z,17.40
2018-09-20T07:13:11.369Z,17.50
2018-09-20T07:15:46.143Z,17.60
2018-09-20T07:18:20.875Z,17.70
2018-09-20T07:20:56.650Z,17.90
2018-09-20T07:23:32.103Z,18.00
2018-09-20T07:26:07.466Z,18.10
2018-09-20T07:28:42.850Z,18.20
2018-09-20T07:31:18.337Z,18.30
2018-09-20T07:33:55.074Z,18.50
2018-09-20T07:36:30.317Z,18.60
2018-09-20T07:39:08.010Z,18.80
2018-09-20T07:41:43.250Z,19.00
2018-09-20T07:44:18.494Z,19.20
2018-09-20T07:46:54.027Z,19.30
2018-09-20T07:49:29.259Z,19.40
2018-09-20T07:52:04.763Z,19.70
2018-09-20T07:54:40.266Z,19.80
2018-09-20T07:57:19.867Z,20.10
2018-09-20T07:59:54.993Z,20.40
2018-09-20T08:02:30.471Z,20.60
2018-09-20T08:05:05.792Z,20.90
2018-09-20T08:07:41.228Z,21.40
2018-09-20T08:10:16.726Z,22.00
2018-09-20T08:12:52.146Z,22.80
2018-09-20T08:15:27.515Z,22.90
2018-09-20T08:18:03.059Z,23.60
2018-09-20T08:20:38.418Z,24.20
2018-09-20T08:23:13.692Z,24.60
2018-09-20T08:25:49.030Z,24.80
2018-09-20T08:28:24.429Z,25.10
2018-09-20T08:30:59.617Z,25.60
2018-09-20T08:33:35.134Z,26.30
2018-09-20T08:36:10.439Z,26.60
2018-09-20T08:38:45.593Z,26.90
2018-09-20T08:41:21.080Z,27.10
2018-09-20T08:43:56.597Z,26.90
2018-09-20T08:46:32.542Z,27.30
2018-09-20T08:49:08.670Z,27.30
2018-09-20T08:51:44.734Z,27.70
2018-09-20T08:54:19.798Z,28.20
2018-09-20T08:56:54.938Z,28.50
2018-09-20T08:59:30.139Z,28.30
2018-09-20T09:02:05.480Z,28.30
2018-09-20T09:04:40.457Z,29.10
2018-09-20T09:07:15.659Z,29.10
2018-09-20T09:09:50.748Z,28.20
2018-09-20T09:12:25.822Z,29.10
2018-09-20T09:15:00.954Z,28.70
2018-09-20T09:17:35.999Z,29.10
2018-09-20T09:20:11.125Z,29.60
2018-09-20T09:22:46.250Z,29.30
2018-09-20T09:25:21.233Z,29.90
2018-09-20T09:27:56.375Z,31.00
2018-09-20T09:30:31.472Z,30.30
2018-09-20T09:33:06.407Z,31.50
2018-09-20T09:35:42.535Z,32.20
2018-09-20T09:38:17.495Z,30.90
2018-09-20T09:40:52.612Z,30.10
2018-09-20T09:43:27.671Z,30.60
2018-09-20T09:46:03.498Z,31.20
2018-09-20T09:48:39.413Z,31.20
2018-09-20T09:51:14.475Z,31.50
2018-09-20T09:53:49.738Z,30.50
2018-09-20T09:56:24.759Z,30.50
2018-09-20T09:58:59.848Z,32.10
2018-09-20T10:01:35.035Z,33.00
2018-09-20T10:04:10.514Z,33.10
2018-09-20T10:06:45.596Z,32.80
2018-09-20T10:09:20.755Z,32.60
2018-09-20T10:11:55.793Z,33.10
2018-09-20T10:14:30.737Z,32.40
2018-09-20T10:17:06.283Z,32.80
2018-09-20T10:19:41.198Z,32.20
2018-09-20T10:22:17.026Z,33.40
2018-09-20T10:24:52.203Z,33.10
2018-09-20T10:27:27.336Z,34.40
2018-09-20T10:30:03.910Z,33.20
2018-09-20T10:32:39.041Z,34.80
2018-09-20T10:35:14.749Z,35.60
2018-09-20T10:37:49.847Z,35.00
2018-09-20T10:40:25.785Z,34.80
2018-09-20T10:43:00.705Z,35.40
2018-09-20T10:45:36.234Z,36.20
2018-09-20T10:48:11.348Z,33.70
2018-09-20T10:50:46.534Z,34.80
2018-09-20T10:53:21.495Z,35.60
2018-09-20T10:55:56.625Z,36.10
2018-09-20T10:58:31.738Z,36.10
2018-09-20T11:01:06.937Z,34.40
2018-09-20T11:03:42.137Z,33.40
2018-09-20T11:06:18.394Z,31.40
2018-09-20T11:08:53.393Z,30.80
2018-09-20T11:11:28.527Z,32.00
2018-09-20T11:14:03.927Z,34.40
2018-09-20T11:16:39.581Z,33.90
2018-09-20T11:19:14.705Z,32.90
2018-09-20T11:21:49.995Z,32.30
2018-09-20T11:24:25.370Z,31.60
2018-09-20T11:27:00.475Z,32.20
2018-09-20T11:29:36.118Z,32.00
2018-09-20T11:32:11.238Z,30.60
2018-09-20T11:34:46.320Z,31.00
2018-09-20T11:37:21.325Z,33.20
2018-09-20T11:39:56.443Z,34.40
2018-09-20T11:42:31.613Z,33.70
2018-09-20T11:45:06.893Z,32.80
2018-09-20T11:47:42.269Z,32.70
2018-09-20T11:50:17.406Z,34.20
2018-09-20T11:52:52.477Z,34.10
2018-09-20T11:55:27.643Z,33.70
2018-09-20T11:58:06.806Z,33.80
2018-09-20T12:00:41.950Z,35.30
2018-09-20T12:03:16.987Z,35.40
2018-09-20T12:05:52.042Z,35.60
2018-09-20T12:08:27.861Z,36.00
2018-09-20T12:11:02.894Z,36.50
2018-09-20T12:13:38.383Z,36.60
2018-09-20T12:16:13.696Z,36.50
2018-09-20T12:18:49.217Z,38.20
2018-09-20T12:21:24.475Z,39.00
2018-09-20T12:23:59.419Z,38.80
2018-09-20T12:26:35.217Z,38.90
2018-09-20T12:29:11.511Z,39.00
2018-09-20T12:31:46.494Z,38.00
2018-09-20T12:34:21.883Z,34.40
2018-09-20T12:36:56.887Z,35.90
2018-09-20T12:39:32.027Z,37.30
2018-09-20T12:42:07.176Z,38.00
2018-09-20T12:44:42.350Z,37.90
2018-09-20T12:47:17.381Z,37.70
2018-09-20T12:49:52.470Z,38.20
2018-09-20T12:52:28.056Z,39.20
2018-09-20T12:55:03.359Z,38.10
2018-09-20T12:57:38.490Z,38.70
2018-09-20T13:00:13.628Z,39.50
2018-09-20T13:02:48.912Z,40.20
2018-09-20T13:05:24.107Z,38.30
2018-09-20T13:07:59.307Z,35.90
2018-09-20T13:10:34.649Z,35.10
2018-09-20T13:13:09.647Z,35.00
2018-09-20T13:15:45.633Z,34.00
2018-09-20T13:18:20.916Z,33.60
2018-09-20T13:20:56.801Z,33.40
2018-09-20T13:23:32.122Z,31.90
2018-09-20T13:26:07.264Z,31.90
2018-09-20T13:28:42.401Z,31.90
2018-09-20T13:31:18.309Z,32.30
2018-09-20T13:33:53.994Z,32.90
2018-09-20T13:36:29.378Z,34.10
2018-09-20T13:39:06.645Z,35.20
2018-09-20T13:41:41.538Z,36.00
2018-09-20T13:44:17.133Z,36.20
2018-09-20T13:46:52.410Z,35.60
2018-09-20T13:49:27.361Z,34.80
2018-09-20T13:52:02.434Z,35.00
2018-09-20T13:54:37.542Z,35.40
2018-09-20T13:57:12.651Z,35.40
2018-09-20T13:59:47.796Z,35.60
2018-09-20T14:02:22.961Z,36.30
2018-09-20T14:04:58.116Z,37.20
2018-09-20T14:07:33.225Z,37.60
2018-09-20T14:10:08.990Z,36.70
2018-09-20T14:12:45.097Z,35.40
2018-09-20T14:15:20.304Z,34.60
2018-09-20T14:17:55.482Z,34.40
2018-09-20T14:20:31.315Z,33.70
2018-09-20T14:23:06.420Z,33.40
2018-09-20T14:25:41.373Z,32.90
2018-09-20T14:28:16.691Z,32.70
2018-09-20T14:30:52.357Z,32.60
2018-09-20T14:33:27.294Z,32.80
2018-09-20T14:36:02.646Z,34.40
2018-09-20T14:38:37.723Z,35.40
2018-09-20T14:41:12.966Z,35.60
2018-09-20T14:43:48.958Z,35.80
2018-09-20T14:46:24.099Z,36.20
2018-09-20T14:48:59.170Z,37.10
2018-09-20T14:51:34.471Z,37.20
2018-09-20T14:54:10.326Z,38.10
2018-09-20T14:56:45.429Z,38.20
2018-09-20T14:59:20.409Z,37.10
2018-09-20T15:01:55.920Z,38.00
2018-09-20T15:04:31.050Z,38.10
2018-09-20T15:07:06.543Z,38.10
2018-09-20T15:09:41.706Z,37.80
2018-09-20T15:12:16.905Z,37.30
2018-09-20T15:14:52.042Z,37.60
2018-09-20T15:17:27.300Z,37.80
2018-09-20T15:20:02.777Z,36.00
2018-09-20T15:22:37.873Z,35.00
2018-09-20T15:25:13.093Z,34.30
2018-09-20T15:27:48.078Z,33.80
2018-09-20T15:30:23.320Z,33.30
2018-09-20T15:32:58.895Z,33.00
2018-09-20T15:35:33.935Z,32.10
2018-09-20T15:38:09.393Z,31.90
2018-09-20T15:40:44.591Z,31.80
2018-09-20T15:43:19.827Z,31.50
2018-09-20T15:45:55.210Z,31.40
2018-09-20T15:48:30.804Z,31.30
2018-09-20T15:51:06.443Z,31.20
2018-09-20T15:53:41.542Z,31.10
2018-09-20T15:56:17.465Z,31.10
2018-09-20T15:58:52.768Z,31.00
2018-09-20T16:01:28.649Z,30.90
2018-09-20T16:04:04.013Z,30.80
2018-09-20T16:06:39.000Z,30.80
2018-09-20T16:09:14.184Z,31.00
2018-09-20T16:11:49.502Z,31.00
2018-09-20T16:14:24.638Z,31.00
2018-09-20T16:17:00.162Z,31.10
2018-09-20T16:19:35.363Z,31.20
2018-09-20T16:22:10.479Z,31.60
2018-09-20T16:24:46.300Z,31.70
2018-09-20T16:27:21.631Z,31.70
2018-09-20T16:30:18.953Z,31.60
2018-09-20T16:33:03.129Z,31.60
2018-09-20T16:35:53.024Z,31.60
2018-09-20T16:38:39.303Z,31.60
2018-09-20T16:41:17.310Z,31.50
2018-09-20T16:43:52.420Z,31.20
2018-09-20T16:46:27.682Z,30.80
2018-09-20T16:49:03.370Z,30.50
2018-09-20T16:51:38.838Z,30.30
2018-09-20T16:54:13.842Z,30.20
2018-09-20T16:56:49.782Z,29.90
2018-09-20T16:59:24.975Z,29.10
2018-09-20T17:02:00.599Z,28.90
2018-09-20T17:04:36.059Z,28.60
2018-09-20T17:07:12.160Z,28.30
2018-09-20T17:09:48.069Z,28.00
2018-09-20T17:12:24.260Z,27.90
2018-09-20T17:15:00.079Z,27.60
2018-09-20T17:17:36.271Z,27.50
2018-09-20T17:20:12.395Z,27.20
2018-09-20T17:22:48.526Z,27.10
2018-09-20T17:25:23.853Z,26.90
2018-09-20T17:28:00.475Z,26.60
2018-09-20T17:30:35.795Z,26.50
2018-09-20T17:33:11.562Z,26.40
2018-09-20T17:35:47.210Z,26.10
2018-09-20T17:38:24.114Z,25.90
2018-09-20T17:41:03.096Z,25.80
2018-09-20T17:43:42.609Z,25.70
2018-09-20T17:46:18.311Z,25.50
2018-09-20T17:48:53.686Z,25.30
2018-09-20T17:51:30.000Z,25.20
2018-09-20T17:54:06.123Z,25.00
2018-09-20T17:56:42.414Z,24.80
2018-09-20T17:59:17.882Z,24.70
2018-09-20T18:01:53.323Z,24.70
2018-09-20T18:04:28.740Z,24.70
2018-09-20T18:07:04.360Z,24.60
2018-09-20T18:09:39.744Z,24.40
2018-09-20T18:12:15.126Z,24.30
2018-09-20T18:14:50.508Z,24.20
2018-09-20T18:17:26.386Z,24.10
2018-09-20T18:20:02.218Z,23.80
2018-09-20T18:22:37.896Z,23.80
2018-09-20T18:25:13.240Z,23.90
2018-09-20T18:27:48.915Z,23.90
2018-09-20T18:30:24.380Z,23.80
2018-09-20T18:33:00.925Z,23.50
2018-09-20T18:35:36.445Z,23.50
2018-09-20T18:38:13.103Z,23.30
2018-09-20T18:40:48.659Z,23.20
2018-09-20T18:43:25.029Z,23.00
2018-09-20T18:46:01.010Z,22.80
2018-09-20T18:48:36.694Z,22.80
2018-09-20T18:51:12.263Z,22.60
2018-09-20T18:53:47.867Z,22.50
2018-09-20T18:56:23.394Z,22.30
2018-09-20T18:58:59.155Z,22.00
2018-09-20T19:01:34.860Z,22.00
2018-09-20T19:04:10.092Z,21.80
2018-09-20T19:06:52.093Z,21.80
2018-09-20T19:09:27.571Z,21.70
2018-09-20T19:12:03.251Z,21.50
2018-09-20T19:14:38.746Z,21.70
2018-09-20T19:17:14.408Z,21.40
2018-09-20T19:19:49.939Z,21.20
2018-09-20T19:22:25.462Z,21.20
2018-09-20T19:25:01.070Z,21.20
2018-09-20T19:27:36.899Z,21.20
2018-09-20T19:30:12.824Z,21.00
2018-09-20T19:32:48.523Z,21.10
2018-09-20T19:35:24.073Z,21.00
2018-09-20T19:38:00.095Z,20.80
2018-09-20T19:40:35.827Z,20.60
2018-09-20T19:43:11.912Z,20.60
2018-09-20T19:45:47.359Z,20.30
2018-09-20T19:48:22.817Z,20.20
2018-09-20T19:50:59.347Z,20.30
2018-09-20T19:53:34.739Z,20.30
2018-09-20T19:56:10.486Z,20.20
2018-09-20T19:58:46.609Z,20.20
2018-09-20T20:01:22.733Z,20.10
2018-09-20T20:03:58.150Z,20.20
2018-09-20T20:06:33.792Z,20.00
2018-09-20T20:09:11.812Z,20.10
2018-09-20T20:11:47.486Z,20.20
2018-09-20T20:14:23.875Z,20.00
2018-09-20T20:16:59.123Z,20.00
2018-09-20T20:19:34.695Z,19.90
2018-09-20T20:22:10.390Z,19.90
2018-09-20T20:24:45.798Z,19.70
2018-09-20T20:27:21.587Z,19.50
2018-09-20T20:29:57.226Z,19.50
2018-09-20T20:32:32.772Z,19.50
2018-09-20T20:35:08.876Z,19.40
2018-09-20T20:37:44.190Z,19.50
2018-09-20T20:40:19.977Z,19.30
2018-09-20T20:42:56.356Z,19.40
2018-09-20T20:45:31.991Z,19.30
2018-09-20T20:48:38.656Z,19.30
2018-09-20T20:51:15.126Z,19.10
2018-09-20T20:53:50.372Z,18.80
2018-09-20T20:56:25.958Z,19.00
2018-09-20T20:59:01.764Z,19.00
2018-09-20T21:01:37.035Z,18.90
2018-09-20T21:04:12.585Z,18.70
2018-09-20T21:06:48.049Z,18.50
2018-09-20T21:09:23.650Z,18.40
2018-09-20T21:11:58.867Z,18.40
2018-09-20T21:14:34.473Z,18.30
2018-09-20T21:17:10.252Z,18.30
2018-09-20T21:19:45.875Z,18.20
2018-09-20T21:22:21.517Z,18.10
2018-09-20T21:24:57.625Z,18.10
2018-09-20T21:27:32.959Z,18.10
2018-09-20T21:30:08.949Z,18.10
2018-09-20T21:32:44.617Z,18.10
2018-09-20T21:35:19.552Z,18.00
2018-09-20T21:37:54.768Z,17.80
2018-09-20T21:40:30.436Z,17.90
2018-09-20T21:43:06.881Z,18.00
2018-09-20T21:45:42.523Z,17.90
2018-09-20T21:48:18.038Z,17.80
2018-09-20T21:50:53.199Z,17.60
2018-09-20T21:53:29.023Z,17.50
2018-09-20T21:56:04.265Z,17.50
2018-09-20T21:58:39.331Z,17.30
2018-09-20T22:01:14.938Z,17.20
2018-09-20T22:03:50.386Z,17.30
2018-09-20T22:06:25.331Z,17.20
2018-09-20T22:09:01.261Z,17.20
2018-09-20T22:11:36.491Z,17.20
2018-09-20T22:14:12.716Z,17.00
2018-09-20T22:16:47.953Z,17.00
2018-09-20T22:19:22.806Z,17.00
2018-09-20T22:21:57.833Z,17.00
2018-09-20T22:24:33.066Z,17.10
2018-09-20T22:27:08.786Z,17.00
2018-09-20T22:29:43.778Z,16.80
2018-09-20T22:32:20.651Z,16.70
2018-09-20T22:34:56.311Z,16.70
2018-09-20T22:37:31.490Z,16.50
2018-09-20T22:40:06.649Z,16.30
2018-09-20T22:42:41.564Z,16.20
2018-09-20T22:45:16.502Z,16.20
2018-09-20T22:47:51.215Z,16.10
2018-09-20T22:50:26.044Z,16.10
2018-09-20T22:53:01.021Z,16.20
2018-09-20T22:55:35.738Z,16.10
2018-09-20T22:58:10.759Z,16.00
2018-09-20T23:00:45.648Z,16.10
2018-09-20T23:03:21.023Z,16.20
2018-09-20T23:05:56.395Z,16.20
2018-09-20T23:08:31.360Z,16.10
2018-09-20T23:11:07.287Z,16.10
2018-09-20T23:13:42.009Z,16.00
2018-09-20T23:16:17.044Z,16.00
2018-09-20T23:18:51.746Z,15.90
2018-09-20T23:21:26.626Z,15.80
2018-09-20T23:24:02.253Z,15.70
2018-09-20T23:26:37.197Z,15.70
2018-09-20T23:29:12.618Z,15.40
2018-09-20T23:31:47.494Z,15.50
2018-09-20T23:34:22.493Z,15.40
2018-09-20T23:36:57.203Z,15.50
2018-09-20T23:39:31.996Z,15.40
2018-09-20T23:42:09.753Z,15.30
2018-09-20T23:44:44.681Z,15.20
2018-09-20T23:47:19.457Z,15.10
2018-09-20T23:49:54.893Z,15.20
2018-09-20T23:52:30.043Z,15.30
2018-09-20T23:55:04.798Z,15.30
2018-09-20T23:57:39.509Z,15.20
